Time;durP1;ratioP1;P1;durP2;ratioP2;P2;SDS_P1;SDS_P2;PMS_P1;PMS_P2;Temp;Humidity;BMP_temperature;BMP_pressure;BME280_temperature;BME280_humidity;BME280_pressure;Samples;Min_cycle;Max_cycle;Signal;HPM_P1;HPM_P2
2021/07/09 00:00:38;;;;;;;;;;;;;;;20.85;58.80;95902.09;1020177;29;1345;-76
2021/07/09 00:01:09;;;;;;;;;;;;;;;20.85;58.92;95904.72;1012313;29;1099;-76
2021/07/09 00:01:39;;;;;;;;;;;;;;;20.85;58.79;95904.72;1012774;29;1154;-76
2021/07/09 00:02:10;;;;;;;;;;;;;;;20.85;58.97;95898.66;1015398;29;1178;-77
2021/07/09 00:02:40;;;;;;;;;;;;;;;20.86;58.67;95906.28;1017270;29;1158;-76
2021/07/09 00:03:11;;;;;;;;;;;;;;;20.86;58.82;95906.28;1015795;29;2648;-76
2021/07/09 00:03:42;;;;;;;;;;;;;;;20.87;58.89;95901.81;1014655;29;2716;-76
2021/07/09 00:04:14;;;;;;;;;;;;;;;20.86;58.96;95898.38;1015168;29;2688;-77
2021/07/09 00:04:44;;;;;;;;;;;;;;;20.87;58.75;95899.16;1015357;29;2680;-76
2021/07/09 00:05:14;;;;;;;;;;;;;;;20.88;58.80;95898.09;1020343;29;1193;-77
2021/07/09 00:05:45;;;;;;;;;;;;;;;20.88;58.75;95901.53;1020345;29;1202;-77
2021/07/09 00:06:17;;;;;;;;;;;;;;;20.87;58.77;95894.69;1015512;29;2642;-75
2021/07/09 00:06:47;;;;;;;;;;;;;;;20.87;58.87;95893.91;1014753;29;2199;-76
2021/07/09 00:07:17;;;;;;;;;;;;;;;20.88;58.85;95895.47;1017975;29;2336;-76
2021/07/09 00:07:47;;;;;;;;;;;;;;;20.89;58.89;95897.06;1017786;29;1127;-76
2021/07/09 00:08:18;;;;;;;;;;;;;;;20.89;58.65;95889.16;1019503;29;1214;-76
2021/07/09 00:08:48;;;;;;;;;;;;;;;20.89;58.87;95889.94;1015564;29;2288;-75
2021/07/09 00:09:18;;;;;;;;;;;;;;;20.90;58.67;95888.88;1012617;29;2626;-77
2021/07/09 00:09:50;;;;;;;;;;;;;;;20.90;58.91;95890.69;1016876;29;2305;-76
2021/07/09 00:10:20;;;;;;;;;;;;;;;20.90;58.79;95891.50;1018271;29;1197;-78
2021/07/09 00:10:51;;;;;;;;;;;;;;;20.91;58.80;95887.81;1016825;29;2353;-77
2021/07/09 00:11:21;;;;;;;;;;;;;;;20.92;58.68;95884.09;1013659;29;2383;-76
2021/07/09 00:11:51;;;;;;;;;;;;;;;20.93;58.61;95884.91;1017940;29;2311;-75
2021/07/09 00:12:22;;;;;;;;;;;;;;;20.93;58.82;95884.91;1018597;29;2664;-75
2021/07/09 00:12:52;;;;;;;;;;;;;;;20.92;58.57;95885.94;1015589;29;1936;-77
2021/07/09 00:13:22;;;;;;;;;;;;;;;20.91;58.54;95885.19;1007443;29;2325;-78
2021/07/09 00:13:53;;;;;;;;;;;;;;;20.92;58.71;95889.38;1013792;29;2462;-76
2021/07/09 00:14:24;;;;;;;;;;;;;;;20.94;58.53;95886.47;1012910;29;2504;-75
2021/07/09 00:14:54;;;;;;;;;;;;;;;20.94;58.73;95892.53;1018669;29;2888;-76
2021/07/09 00:15:25;;;;;;;;;;;;;;;20.94;58.68;95889.91;1019271;29;2466;-77
2021/07/09 00:15:55;;;;;;;;;;;;;;;20.94;58.72;95884.63;1018670;29;1218;-77
2021/07/09 00:16:25;;;;;;;;;;;;;;;20.95;58.52;95885.41;1020559;29;935;-77
2021/07/09 00:16:56;;;;;;;;;;;;;;;20.95;58.58;95883.56;1019022;29;1082;-75
2021/07/09 00:17:26;;;;;;;;;;;;;;;20.96;58.54;95889.63;1016306;29;753;-76
2021/07/09 00:17:56;;;;;;;;;;;;;;;20.97;58.60;95891.19;1017748;29;1157;-77
2021/07/09 00:18:26;;;;;;;;;;;;;;;20.95;58.64;95886.22;1016217;29;1186;-76
2021/07/09 00:18:59;;;;;;;;;;;;;;;20.95;58.35;95883.56;1013730;29;1290;-76
2021/07/09 00:19:29;;;;;;;;;;;;;;;20.96;58.66;95884.34;1015670;29;1554;-77
2021/07/09 00:19:59;;;;;;;;;;;;;;;20.95;58.64;95886.22;1015183;29;2498;-76
2021/07/09 00:20:30;;;;;;;;;;;;;;;20.96;58.33;95889.63;1016305;29;1204;-77
2021/07/09 00:21:00;;;;;;;;;;;;;;;20.95;58.34;95894.13;1021573;29;2422;-76
2021/07/09 00:21:32;;;;;;;;;;;;;;;20.95;58.60;95891.47;1018326;29;2828;-76
2021/07/09 00:22:02;;;;;;;;;;;;;;;20.96;58.31;95886.97;1020406;29;2502;-76
2021/07/09 00:22:32;;;;;;;;;;;;;;;20.95;58.47;95890.69;1016719;29;2434;-77
2021/07/09 00:23:03;;;;;;;;;;;;;;;20.94;58.37;95892.53;1017847;29;2691;-76
2021/07/09 00:23:35;;;;;;;;;;;;;;;20.94;58.44;95892.53;1018563;29;2812;-76
2021/07/09 00:24:06;;;;;;;;;;;;;;;20.94;58.28;95889.09;1017904;29;2620;-77
2021/07/09 00:24:36;;;;;;;;;;;;;;;20.93;58.44;95884.91;1010521;29;2506;-77
2021/07/09 00:25:08;;;;;;;;;;;;;;;20.94;58.43;95891.72;1011550;29;2599;-77
2021/07/09 00:25:38;;;;;;;;;;;;;;;20.93;58.55;95890.97;1009095;29;2978;-76
2021/07/09 00:26:09;;;;;;;;;;;;;;;20.94;58.18;95886.47;1015603;29;2868;-76
2021/07/09 00:26:39;;;;;;;;;;;;;;;20.94;58.31;95891.72;1023361;29;1143;-76
2021/07/09 00:27:09;;;;;;;;;;;;;;;20.93;58.51;95890.97;1021419;29;1641;-76
2021/07/09 00:27:39;;;;;;;;;;;;;;;20.93;58.46;95890.97;1020668;29;1157;-75
2021/07/09 00:28:10;;;;;;;;;;;;;;;20.92;58.48;95886.75;1020683;29;1171;-77
2021/07/09 00:28:40;;;;;;;;;;;;;;;20.93;58.45;95880.44;1018955;29;1234;-77
2021/07/09 00:29:10;;;;;;;;;;;;;;;20.91;58.40;95887.81;1024158;28;1222;-77
2021/07/09 00:29:41;;;;;;;;;;;;;;;20.90;58.50;95886.22;1016850;29;1898;-76
2021/07/09 00:30:11;;;;;;;;;;;;;;;20.91;58.35;95881.75;1017703;29;2935;-77
2021/07/09 00:30:41;;;;;;;;;;;;;;;20.91;58.52;95879.91;1012623;29;1509;-75
2021/07/09 00:31:12;;;;;;;;;;;;;;;20.90;58.20;95880.16;1014111;29;1342;-77
2021/07/09 00:31:42;;;;;;;;;;;;;;;20.89;58.22;95883.88;1016576;29;965;-77
2021/07/09 00:32:12;;;;;;;;;;;;;;;20.89;58.07;95879.41;1016402;29;1521;-77
2021/07/09 00:32:42;;;;;;;;;;;;;;;20.89;58.50;95879.41;1019738;29;2411;-78
2021/07/09 00:33:13;;;;;;;;;;;;;;;20.88;58.29;95872.53;1018575;29;2857;-77
2021/07/09 00:33:43;;;;;;;;;;;;;;;20.88;58.47;95875.16;1019507;29;2546;-76
2021/07/09 00:34:14;;;;;;;;;;;;;;;20.88;58.26;95882.28;1018862;29;2458;-77
2021/07/09 00:34:44;;;;;;;;;;;;;;;20.87;58.28;95872.81;1019970;29;2875;-77
2021/07/09 00:35:14;;;;;;;;;;;;;;;20.87;58.22;95875.44;1020629;29;2858;-76
2021/07/09 00:35:45;;;;;;;;;;;;;;;20.86;58.43;95872.03;1018604;29;1238;-76
2021/07/09 00:36:15;;;;;;;;;;;;;;;20.86;58.50;95866.75;1020264;29;2882;-77
2021/07/09 00:36:45;;;;;;;;;;;;;;;20.85;58.45;95867.81;1024534;29;1094;-77
2021/07/09 00:37:16;;;;;;;;;;;;;;;20.86;58.21;95872.03;1020051;29;2963;-76
2021/07/09 00:37:46;;;;;;;;;;;;;;;20.86;58.52;95869.38;1016391;29;1111;-77
2021/07/09 00:38:16;;;;;;;;;;;;;;;20.84;58.43;95874.13;1010867;29;750;-75
2021/07/09 00:38:47;;;;;;;;;;;;;;;20.83;58.26;95867.31;1012115;29;1230;-77
2021/07/09 00:39:17;;;;;;;;;;;;;;;20.83;58.48;95864.69;1011255;29;2813;-75
2021/07/09 00:39:47;;;;;;;;;;;;;;;20.82;58.22;95868.34;1013808;29;1142;-77
2021/07/09 00:40:17;;;;;;;;;;;;;;;20.83;58.47;95874.41;1018369;29;2811;-76
2021/07/09 00:40:48;;;;;;;;;;;;;;;20.81;58.35;95869.41;1021204;29;1345;-77
2021/07/09 00:41:18;;;;;;;;;;;;;;;20.82;58.25;95870.19;1022346;29;2670;-76
2021/07/09 00:41:48;;;;;;;;;;;;;;;20.81;58.42;95864.13;1013704;29;2723;-76
2021/07/09 00:42:18;;;;;;;;;;;;;;;20.81;58.46;95871.28;1015087;29;2521;-75
2021/07/09 00:42:49;;;;;;;;;;;;;;;20.80;58.25;95867.84;1017981;29;1162;-77
2021/07/09 00:43:19;;;;;;;;;;;;;;;20.81;58.41;95871.28;1017720;29;1038;-76
2021/07/09 00:43:50;;;;;;;;;;;;;;;20.80;58.47;95867.84;1021973;29;1210;-76
2021/07/09 00:44:20;;;;;;;;;;;;;;;20.79;58.33;95866.25;1024103;29;817;-76
2021/07/09 00:44:50;;;;;;;;;;;;;;;20.80;58.47;95859.94;1022349;29;1105;-77
2021/07/09 00:45:21;;;;;;;;;;;;;;;20.80;58.21;95864.41;1015587;29;2301;-76
2021/07/09 00:45:51;;;;;;;;;;;;;;;20.80;58.21;95859.16;1015319;29;2293;-77
2021/07/09 00:46:34;;;;;;;;;;;;;;;20.80;58.19;95864.41;1015406;29;2649;-76
2021/07/09 00:47:05;;;;;;;;;;;;;;;20.80;58.34;95870.47;1017485;29;1203;-75
2021/07/09 00:47:35;;;;;;;;;;;;;;;20.80;58.20;95865.22;1016428;29;1247;-76
2021/07/09 00:48:05;;;;;;;;;;;;;;;20.80;58.29;95859.94;1015916;29;1122;-76
2021/07/09 00:48:35;;;;;;;;;;;;;;;20.81;58.13;95863.38;1016125;29;1123;-76
2021/07/09 00:49:06;;;;;;;;;;;;;;;20.80;58.39;95859.94;1020161;29;1309;-77
2021/07/09 00:49:36;;;;;;;;;;;;;;;20.81;58.20;95863.38;1022104;29;1934;-76
2021/07/09 00:50:07;;;;;;;;;;;;;;;20.80;58.42;95862.56;1019787;29;2383;-76
2021/07/09 00:50:37;;;;;;;;;;;;;;;20.80;58.07;95865.22;1017389;29;2611;-78
2021/07/09 00:51:09;;;;;;;;;;;;;;;20.80;58.20;95864.41;1016316;29;2074;-76
2021/07/09 00:51:39;;;;;;;;;;;;;;;20.80;58.11;95859.16;1015794;29;1226;-75
2021/07/09 00:52:09;;;;;;;;;;;;;;;20.80;58.19;95864.41;1020394;29;718;-76
2021/07/09 00:52:40;;;;;;;;;;;;;;;20.80;58.10;95862.56;1016110;29;1133;-75
2021/07/09 00:53:10;;;;;;;;;;;;;;;20.78;58.19;95861.25;1015269;29;991;-75
2021/07/09 00:53:40;;;;;;;;;;;;;;;20.76;58.07;95856.28;1012861;29;1739;-76
2021/07/09 00:54:11;;;;;;;;;;;;;;;20.76;58.29;95852.84;1016466;29;765;-75
2021/07/09 00:54:41;;;;;;;;;;;;;;;20.75;58.24;95851.28;1015735;29;2428;-77
2021/07/09 00:55:11;;;;;;;;;;;;;;;20.73;58.28;95843.63;1015179;29;2424;-76
2021/07/09 00:55:42;;;;;;;;;;;;;;;20.74;58.41;95845.22;1014820;29;2534;-76
2021/07/09 00:56:12;;;;;;;;;;;;;;;20.73;58.35;95848.13;1015772;29;1650;-76
2021/07/09 00:56:42;;;;;;;;;;;;;;;20.73;58.13;95848.91;1011122;29;2648;-77
2021/07/09 00:57:13;;;;;;;;;;;;;;;20.73;58.07;95838.38;1016551;29;852;-76
2021/07/09 00:57:46;;;;;;;;;;;;;;;20.74;58.15;95849.69;1014271;29;985;-76
2021/07/09 00:58:16;;;;;;;;;;;;;;;20.74;58.09;95842.59;1015977;29;1170;-75
2021/07/09 00:58:47;;;;;;;;;;;;;;;20.72;58.05;95842.06;1015503;29;2497;-76
2021/07/09 00:59:21;;;;;;;;;;;;;;;20.73;58.01;95840.22;1015629;29;2705;-76
2021/07/09 00:59:52;;;;;;;;;;;;;;;20.74;58.10;95839.16;1021777;29;2613;-76
2021/07/09 01:00:22;;;;;;;;;;;;;;;20.72;58.04;95839.44;1018255;29;2716;-75
2021/07/09 01:00:53;;;;;;;;;;;;;;;20.71;58.26;95832.56;1015281;29;3868;-75
2021/07/09 01:01:23;;;;;;;;;;;;;;;20.70;57.96;95833.66;1012189;29;2646;-76
2021/07/09 01:01:56;;;;;;;;;;;;;;;20.71;58.14;95835.22;1013229;29;1131;-75
2021/07/09 01:02:26;;;;;;;;;;;;;;;20.69;58.33;95832.06;1015849;29;1138;-76
2021/07/09 01:02:57;;;;;;;;;;;;;;;20.70;58.30;95828.38;1008615;29;2482;-77
2021/07/09 01:03:27;;;;;;;;;;;;;;;20.69;58.22;95832.06;1013259;29;1024;-75
2021/07/09 01:03:57;;;;;;;;;;;;;;;20.69;58.02;95831.31;1015538;29;1164;-75
2021/07/09 01:04:27;;;;;;;;;;;;;;;20.68;58.20;95830.50;1016849;29;1074;-76
2021/07/09 01:04:58;;;;;;;;;;;;;;;20.68;58.13;95829.72;1018096;29;2691;-75
2021/07/09 01:05:28;;;;;;;;;;;;;;;20.67;58.08;95828.91;1017311;28;2477;-74
2021/07/09 01:05:58;;;;;;;;;;;;;;;20.67;58.11;95828.91;1019305;29;2243;-74
2021/07/09 01:06:28;;;;;;;;;;;;;;;20.68;58.32;95825.25;1019535;29;2648;-76
2021/07/09 01:06:59;;;;;;;;;;;;;;;20.67;58.07;95825.53;1014778;29;2559;-74
2021/07/09 01:07:29;;;;;;;;;;;;;;;20.66;58.11;95832.63;1013110;29;2342;-76
2021/07/09 01:07:59;;;;;;;;;;;;;;;20.65;58.01;95825.78;1009041;29;2690;-76
2021/07/09 01:08:30;;;;;;;;;;;;;;;20.66;58.15;95830.00;1006398;29;2656;-75
2021/07/09 01:09:00;;;;;;;;;;;;;;;20.65;58.15;95825.00;1010159;29;2697;-76
2021/07/09 01:09:32;;;;;;;;;;;;;;;20.64;58.11;95818.94;1016498;29;1907;-76
2021/07/09 01:10:03;;;;;;;;;;;;;;;20.64;58.25;95823.41;1020109;29;1265;-76
2021/07/09 01:10:33;;;;;;;;;;;;;;;20.65;58.21;95819.72;1014672;29;2680;-76
2021/07/09 01:11:03;;;;;;;;;;;;;;;20.64;58.31;95823.41;1016193;29;1509;-75
2021/07/09 01:11:33;;;;;;;;;;;;;;;20.62;58.00;95815.78;1017088;29;909;-76
2021/07/09 01:12:04;;;;;;;;;;;;;;;20.62;58.19;95821.06;1019277;29;1158;-77
2021/07/09 01:12:34;;;;;;;;;;;;;;;20.63;57.98;95822.63;1017208;29;848;-76
2021/07/09 01:13:05;;;;;;;;;;;;;;;20.62;58.07;95820.25;1019917;29;1115;-76
2021/07/09 01:13:35;;;;;;;;;;;;;;;20.63;58.14;95824.50;1016127;29;2278;-75
2021/07/09 01:14:08;;;;;;;;;;;;;;;20.62;58.24;95821.06;1016404;29;2408;-76
2021/07/09 01:14:38;;;;;;;;;;;;;;;20.63;58.06;95819.22;1012535;29;2775;-76
2021/07/09 01:15:10;;;;;;;;;;;;;;;20.63;58.33;95822.63;1009382;29;984;-77
2021/07/09 01:15:40;;;;;;;;;;;;;;;20.63;58.03;95819.97;1007260;29;2684;-76
2021/07/09 01:16:11;;;;;;;;;;;;;;;20.62;58.04;95815.78;1008278;29;2609;-76
2021/07/09 01:16:41;;;;;;;;;;;;;;;20.61;58.07;95814.19;1013717;29;1072;-77
2021/07/09 01:17:12;;;;;;;;;;;;;;;20.60;58.15;95815.28;1020910;29;1419;-76
2021/07/09 01:17:42;;;;;;;;;;;;;;;20.62;58.07;95825.53;1016693;29;1394;-76
2021/07/09 01:18:13;;;;;;;;;;;;;;;20.62;58.14;95822.91;1016777;29;817;-76
2021/07/09 01:18:43;;;;;;;;;;;;;;;20.62;58.06;95821.06;1013314;29;1824;-76
2021/07/09 01:19:14;;;;;;;;;;;;;;;20.61;58.23;95822.09;1017242;29;1345;-77
2021/07/09 01:19:44;;;;;;;;;;;;;;;20.61;58.33;95821.34;1013691;29;1527;-76
2021/07/09 01:20:15;;;;;;;;;;;;;;;20.62;58.12;95817.63;1013827;29;2122;-74
2021/07/09 01:20:45;;;;;;;;;;;;;;;20.62;58.06;95815.78;1012044;29;2314;-76
2021/07/09 01:21:16;;;;;;;;;;;;;;;20.61;57.94;95816.06;1012359;29;2739;-75
2021/07/09 01:21:46;;;;;;;;;;;;;;;20.61;58.06;95814.19;1013658;29;2314;-76
2021/07/09 01:22:16;;;;;;;;;;;;;;;20.60;57.98;95817.91;1016286;29;2510;-76
2021/07/09 01:22:47;;;;;;;;;;;;;;;20.61;57.91;95814.19;1019260;29;2688;-76
2021/07/09 01:23:18;;;;;;;;;;;;;;;20.59;58.18;95808.41;1020028;29;1106;-75
2021/07/09 01:23:55;;;;;;;;;;;;;;;20.60;58.06;95812.63;1012934;29;1151;-77
2021/07/09 01:24:25;;;;;;;;;;;;;;;20.60;57.94;95807.38;1007311;29;2325;-75
2021/07/09 01:24:55;;;;;;;;;;;;;;;20.61;57.93;95813.44;1011405;29;2667;-75
2021/07/09 01:25:26;;;;;;;;;;;;;;;20.61;57.96;95808.16;1013927;29;2716;-74
2021/07/09 01:25:56;;;;;;;;;;;;;;;20.60;57.96;95810.00;1016688;29;1139;-76
2021/07/09 01:26:27;;;;;;;;;;;;;;;20.60;58.19;95812.63;1015940;29;1155;-76
2021/07/09 01:26:57;;;;;;;;;;;;;;;20.61;58.05;95808.16;1019670;29;1376;-76
2021/07/09 01:27:28;;;;;;;;;;;;;;;20.61;57.98;95808.16;1017218;29;801;-76
2021/07/09 01:27:59;;;;;;;;;;;;;;;20.61;57.78;95808.16;1021265;29;2327;-76
2021/07/09 01:28:29;;;;;;;;;;;;;;;20.61;58.23;95806.31;1018901;29;2799;-76
2021/07/09 01:29:00;;;;;;;;;;;;;;;20.62;58.17;95810.53;1019841;29;2657;-76
2021/07/09 01:29:30;;;;;;;;;;;;;;;20.61;58.00;95808.94;1014140;29;1976;-76
2021/07/09 01:30:00;;;;;;;;;;;;;;;20.62;58.17;95804.47;1019025;29;1191;-76
2021/07/09 01:30:31;;;;;;;;;;;;;;;20.62;58.02;95804.47;1016257;29;2289;-78
2021/07/09 01:31:01;;;;;;;;;;;;;;;20.60;58.04;95809.22;1015923;29;2193;-75
2021/07/09 01:31:32;;;;;;;;;;;;;;;20.59;58.18;95805.78;1013273;29;801;-76
2021/07/09 01:32:03;;;;;;;;;;;;;;;20.59;57.83;95805.00;1015455;29;1217;-74
2021/07/09 01:32:33;;;;;;;;;;;;;;;20.58;58.09;95809.50;1016037;29;2642;-76
2021/07/09 01:33:04;;;;;;;;;;;;;;;20.58;58.21;95801.59;1013852;29;2372;-75
2021/07/09 01:33:34;;;;;;;;;;;;;;;20.58;57.91;95809.50;1013178;29;2194;-76
2021/07/09 01:34:05;;;;;;;;;;;;;;;20.58;58.02;95803.44;1014027;29;1233;-76
2021/07/09 01:34:35;;;;;;;;;;;;;;;20.57;57.97;95807.09;1016462;29;871;-76
2021/07/09 01:35:05;;;;;;;;;;;;;;;20.58;58.06;95809.50;1013917;29;1225;-77
2021/07/09 01:35:36;;;;;;;;;;;;;;;20.57;57.97;95804.47;1013642;29;2750;-76
2021/07/09 01:36:06;;;;;;;;;;;;;;;20.56;58.00;95802.91;1017225;29;1206;-76
2021/07/09 01:36:36;;;;;;;;;;;;;;;20.56;57.95;95798.44;1013756;29;2639;-74
2021/07/09 01:37:13;;;;;;;;;;;;;;;20.55;57.94;95807.38;1019962;29;1242;-75
2021/07/09 01:37:53;;;;;;;;;;;;;;;20.57;58.04;95802.63;1021912;29;1141;-77
2021/07/09 01:38:24;;;;;;;;;;;;;;;20.56;57.87;95801.06;1021362;28;1277;-77
2021/07/09 01:38:54;;;;;;;;;;;;;;;20.58;57.99;95800.78;1021488;28;2088;-77
2021/07/09 01:39:25;;;;;;;;;;;;;;;20.57;57.80;95801.84;1015939;29;2269;-77
2021/07/09 01:39:55;;;;;;;;;;;;;;;20.55;58.00;95796.84;1019269;29;1143;-77
2021/07/09 01:40:25;;;;;;;;;;;;;;;20.56;57.74;95792.38;1019163;29;2620;-76
2021/07/09 01:40:56;;;;;;;;;;;;;;;20.55;58.02;95794.22;1017241;29;1132;-76
2021/07/09 01:41:26;;;;;;;;;;;;;;;20.56;58.03;95798.44;1021307;29;1019;-77
2021/07/09 01:41:56;;;;;;;;;;;;;;;20.55;57.85;95799.50;1019513;29;1127;-76
2021/07/09 01:42:27;;;;;;;;;;;;;;;20.54;57.69;95794.50;1015627;29;1350;-77
2021/07/09 01:42:57;;;;;;;;;;;;;;;20.52;57.68;95796.63;1016901;29;1119;-76
2021/07/09 01:43:27;;;;;;;;;;;;;;;20.52;57.67;95800.03;1012236;29;2381;-76
2021/07/09 01:43:58;;;;;;;;;;;;;;;20.52;57.74;95792.16;1019697;29;1166;-76
2021/07/09 01:44:28;;;;;;;;;;;;;;;20.52;57.83;95788.72;1020951;29;1106;-76
2021/07/09 01:44:58;;;;;;;;;;;;;;;20.53;57.80;95790.28;1020642;29;1015;-77
2021/07/09 01:45:28;;;;;;;;;;;;;;;20.53;58.00;95793.72;1016019;29;2435;-77
2021/07/09 01:45:59;;;;;;;;;;;;;;;20.54;58.16;95795.28;1014254;29;2716;-76
2021/07/09 01:46:29;;;;;;;;;;;;;;;20.53;57.75;95785.81;1018778;29;2362;-76
2021/07/09 01:47:00;;;;;;;;;;;;;;;20.52;57.81;95794.78;1015407;29;1619;-77
2021/07/09 01:47:30;;;;;;;;;;;;;;;20.53;57.80;95798.19;1013092;29;1342;-76
2021/07/09 01:48:00;;;;;;;;;;;;;;;20.53;58.00;95796.34;1013956;29;2310;-77
2021/07/09 01:48:31;;;;;;;;;;;;;;;20.53;57.78;95798.97;1012697;29;1233;-76
2021/07/09 01:49:02;;;;;;;;;;;;;;;20.53;57.99;95796.34;1011212;29;1697;-76
2021/07/09 01:49:47;;;;;;;;;;;;;;;20.52;57.96;95794.00;1016025;29;1990;-76
2021/07/09 01:50:17;;;;;;;;;;;;;;;20.53;57.75;95800.81;1018619;29;1227;-76
2021/07/09 01:50:47;;;;;;;;;;;;;;;20.53;57.88;95801.59;1018582;29;2661;-76
2021/07/09 01:51:18;;;;;;;;;;;;;;;20.53;57.92;95795.53;1025062;29;807;-77
2021/07/09 01:51:48;;;;;;;;;;;;;;;20.51;57.90;95795.81;1023129;29;1228;-77
2021/07/09 01:52:19;;;;;;;;;;;;;;;20.52;57.88;95800.03;1022952;29;754;-76
2021/07/09 01:52:49;;;;;;;;;;;;;;;20.53;57.97;95804.25;1022427;29;1078;-77
2021/07/09 01:53:19;;;;;;;;;;;;;;;20.53;57.83;95803.44;1017886;29;1137;-76
2021/07/09 01:53:50;;;;;;;;;;;;;;;20.53;57.78;95806.06;1017396;29;1091;-76
2021/07/09 01:54:20;;;;;;;;;;;;;;;20.53;57.62;95806.06;1011297;29;2623;-77
2021/07/09 01:54:50;;;;;;;;;;;;;;;20.52;57.85;95807.94;1008357;29;1431;-77
2021/07/09 01:55:21;;;;;;;;;;;;;;;20.53;57.90;95804.25;1012950;29;868;-76
2021/07/09 01:55:52;;;;;;;;;;;;;;;20.53;57.85;95806.06;1005495;29;2680;-76
2021/07/09 01:56:22;;;;;;;;;;;;;;;20.53;57.66;95800.81;1009372;29;1660;-76
2021/07/09 01:56:52;;;;;;;;;;;;;;;20.53;58.01;95812.13;1015056;29;1223;-77
2021/07/09 01:57:23;;;;;;;;;;;;;;;20.51;57.71;95803.72;1012955;29;1059;-76
2021/07/09 01:57:53;;;;;;;;;;;;;;;20.53;57.80;95803.44;1017093;29;2319;-76
2021/07/09 01:58:23;;;;;;;;;;;;;;;20.53;57.74;95801.59;1014660;29;2429;-76
2021/07/09 01:58:54;;;;;;;;;;;;;;;20.54;57.81;95805.03;1022591;28;2047;-76
2021/07/09 01:59:24;;;;;;;;;;;;;;;20.53;57.88;95804.25;1020590;29;1225;-75
2021/07/09 01:59:54;;;;;;;;;;;;;;;20.53;57.87;95803.44;1018526;29;1268;-77
2021/07/09 02:00:25;;;;;;;;;;;;;;;20.53;57.59;95808.72;1017045;29;1083;-77
2021/07/09 02:00:55;;;;;;;;;;;;;;;20.53;57.84;95806.88;1015633;29;2588;-75
2021/07/09 02:01:26;;;;;;;;;;;;;;;20.52;57.81;95800.03;1022673;29;1181;-76
2021/07/09 02:01:56;;;;;;;;;;;;;;;20.51;57.78;95806.34;1024446;29;2398;-75
2021/07/09 02:02:26;;;;;;;;;;;;;;;20.51;57.53;95795.81;1020929;29;2161;-75
2021/07/09 02:02:56;;;;;;;;;;;;;;;20.50;57.55;95806.63;1023636;29;1185;-76
2021/07/09 02:03:27;;;;;;;;;;;;;;;20.49;57.65;95802.41;1024964;29;856;-77
2021/07/09 02:03:57;;;;;;;;;;;;;;;20.48;57.65;95799.03;1020727;29;1172;-77
2021/07/09 02:04:27;;;;;;;;;;;;;;;20.47;57.73;95800.06;1009165;29;2622;-77
2021/07/09 02:04:58;;;;;;;;;;;;;;;20.49;57.66;95808.47;1015213;29;2838;-77
2021/07/09 02:05:28;;;;;;;;;;;;;;;20.48;57.73;95804.28;1016632;29;2728;-76
2021/07/09 02:05:58;;;;;;;;;;;;;;;20.48;57.77;95803.50;1019337;29;1999;-76
2021/07/09 02:06:28;;;;;;;;;;;;;;;20.46;57.54;95816.94;1017635;29;1905;-76
2021/07/09 02:06:59;;;;;;;;;;;;;;;20.47;57.66;95801.91;1015936;29;1203;-76
2021/07/09 02:07:29;;;;;;;;;;;;;;;20.46;57.64;95803.78;1014582;29;1145;-77
2021/07/09 02:07:59;;;;;;;;;;;;;;;20.48;57.88;95812.19;1015660;29;1147;-76
2021/07/09 02:08:30;;;;;;;;;;;;;;;20.48;57.70;95812.19;1019936;29;754;-77
2021/07/09 02:09:00;;;;;;;;;;;;;;;20.49;58.00;95812.94;1024393;28;1394;-75
2021/07/09 02:09:30;;;;;;;;;;;;;;;20.49;57.66;95808.47;1024718;29;1918;-75
2021/07/09 02:10:01;;;;;;;;;;;;;;;20.48;57.82;95809.56;1017814;29;1592;-77
2021/07/09 02:10:33;;;;;;;;;;;;;;;20.49;57.66;95811.09;1015837;29;2299;-76
2021/07/09 02:11:03;;;;;;;;;;;;;;;20.46;57.87;95809.03;1015862;29;1023;-76
2021/07/09 02:11:33;;;;;;;;;;;;;;;20.45;57.60;95804.03;1011478;29;2696;-76
2021/07/09 02:12:04;;;;;;;;;;;;;;;20.45;57.69;95809.28;1012803;29;1271;-77
2021/07/09 02:12:35;;;;;;;;;;;;;;;20.45;57.79;95811.91;1009202;29;1412;-76
2021/07/09 02:13:05;;;;;;;;;;;;;;;20.45;57.91;95804.81;1011293;29;1778;-77
2021/07/09 02:13:35;;;;;;;;;;;;;;;20.46;57.71;95806.41;1008868;29;2496;-76
2021/07/09 02:14:05;;;;;;;;;;;;;;;20.46;57.81;95810.88;1018131;29;2395;-76
2021/07/09 02:14:36;;;;;;;;;;;;;;;20.47;57.70;95812.44;1019861;29;2608;-77
2021/07/09 02:15:09;;;;;;;;;;;;;;;20.46;57.81;95805.59;1020957;29;2355;-77
2021/07/09 02:15:45;;;;;;;;;;;;;;;20.46;57.82;95811.66;1017652;29;2869;-76
2021/07/09 02:16:15;;;;;;;;;;;;;;;20.46;57.83;95814.31;1017574;29;2669;-76
2021/07/09 02:16:46;;;;;;;;;;;;;;;20.47;57.77;95818.50;1014140;29;2598;-75
2021/07/09 02:17:16;;;;;;;;;;;;;;;20.43;57.77;95814.81;1014698;29;2630;-76
2021/07/09 02:17:47;;;;;;;;;;;;;;;20.42;57.70;95815.09;1014840;29;2357;-76
2021/07/09 02:18:17;;;;;;;;;;;;;;;20.39;57.61;95805.91;1014447;29;2682;-77
2021/07/09 02:18:47;;;;;;;;;;;;;;;20.39;57.70;95808.53;1021533;29;2626;-77
2021/07/09 02:19:17;;;;;;;;;;;;;;;20.39;57.81;95811.16;1020685;29;1337;-76
2021/07/09 02:19:50;;;;;;;;;;;;;;;20.38;57.71;95809.56;1013870;29;1527;-76
2021/07/09 02:20:21;;;;;;;;;;;;;;;20.38;57.73;95817.47;1012432;29;1629;-76
2021/07/09 02:20:52;;;;;;;;;;;;;;;20.36;57.79;95818.81;1012522;29;2611;-76
2021/07/09 02:21:22;;;;;;;;;;;;;;;20.35;57.75;95809.34;1015021;29;1721;-76
2021/07/09 02:21:52;;;;;;;;;;;;;;;20.34;57.68;95816.44;1014772;29;1343;-77
2021/07/09 02:22:22;;;;;;;;;;;;;;;20.34;57.82;95818.31;1014154;29;2349;-76
2021/07/09 02:22:55;;;;;;;;;;;;;;;20.34;57.58;95816.44;1010209;29;2305;-77
2021/07/09 02:23:25;;;;;;;;;;;;;;;20.34;57.67;95815.66;1011799;29;1095;-77
2021/07/09 02:23:55;;;;;;;;;;;;;;;20.33;57.79;95812.25;1015516;29;1147;-75
2021/07/09 02:24:25;;;;;;;;;;;;;;;20.33;57.71;95814.09;1020546;29;1115;-76
2021/07/09 02:24:56;;;;;;;;;;;;;;;20.31;57.80;95819.63;1016865;29;2376;-76
2021/07/09 02:25:26;;;;;;;;;;;;;;;20.33;57.64;95819.34;1014356;29;2250;-77
2021/07/09 02:25:56;;;;;;;;;;;;;;;20.32;57.75;95815.16;1015512;29;2472;-76
2021/07/09 02:26:27;;;;;;;;;;;;;;;20.32;57.83;95823.81;1018008;29;1146;-77
2021/07/09 02:26:57;;;;;;;;;;;;;;;20.35;57.75;95819.88;1020609;29;1438;-77
2021/07/09 02:27:27;;;;;;;;;;;;;;;20.32;57.90;95815.91;1019121;29;1244;-76
2021/07/09 02:27:57;;;;;;;;;;;;;;;20.30;57.57;95818.03;1017485;29;2391;-75
2021/07/09 02:28:28;;;;;;;;;;;;;;;20.29;57.56;95819.09;1014554;29;2519;-76
2021/07/09 02:28:58;;;;;;;;;;;;;;;20.28;57.77;95820.16;1017325;29;1415;-77
2021/07/09 02:29:29;;;;;;;;;;;;;;;20.27;57.63;95823.84;1016773;29;1907;-76
2021/07/09 02:29:59;;;;;;;;;;;;;;;20.24;57.75;95814.66;1018590;29;1280;-77
2021/07/09 02:30:29;;;;;;;;;;;;;;;20.24;57.72;95819.91;1015443;29;1749;-77
2021/07/09 02:30:59;;;;;;;;;;;;;;;20.21;57.80;95824.94;1016896;29;2693;-77
2021/07/09 02:31:30;;;;;;;;;;;;;;;20.20;57.76;95831.25;1020889;29;1023;-77
2021/07/09 02:32:03;;;;;;;;;;;;;;;20.19;57.82;95827.00;1021905;29;1202;-76
2021/07/09 02:32:34;;;;;;;;;;;;;;;20.18;57.69;95830.69;1016771;29;1461;-76
2021/07/09 02:33:04;;;;;;;;;;;;;;;20.19;57.74;95825.22;1016309;29;1517;-76
2021/07/09 02:33:34;;;;;;;;;;;;;;;20.21;57.87;95824.94;1016857;29;805;-75
2021/07/09 02:34:05;;;;;;;;;;;;;;;20.20;57.93;95824.13;1013252;29;1221;-77
2021/07/09 02:34:35;;;;;;;;;;;;;;;20.21;57.91;95831.00;1012558;29;1042;-77
2021/07/09 02:35:06;;;;;;;;;;;;;;;20.22;57.82;95826.50;1018930;29;1253;-76
2021/07/09 02:35:37;;;;;;;;;;;;;;;20.19;57.73;95830.47;1016806;29;1257;-76
2021/07/09 02:36:08;;;;;;;;;;;;;;;20.18;57.66;95826.22;1016904;29;1885;-77
2021/07/09 02:36:38;;;;;;;;;;;;;;;20.19;57.76;95830.47;1021087;29;1107;-77
2021/07/09 02:37:09;;;;;;;;;;;;;;;20.19;57.75;95833.09;1025092;29;857;-76
2021/07/09 02:37:39;;;;;;;;;;;;;;;20.18;57.59;95830.69;1022167;28;1402;-77
2021/07/09 02:38:10;;;;;;;;;;;;;;;20.17;57.55;95834.41;1022015;29;2664;-77
2021/07/09 02:38:40;;;;;;;;;;;;;;;20.16;57.70;95830.16;1021481;29;1123;-77
2021/07/09 02:39:11;;;;;;;;;;;;;;;20.15;57.56;95834.63;1016704;29;2285;-76
2021/07/09 02:39:41;;;;;;;;;;;;;;;20.15;57.56;95836.50;1017075;29;1039;-76
2021/07/09 02:40:12;;;;;;;;;;;;;;;20.11;57.43;95833.59;1017244;29;2290;-76
2021/07/09 02:40:44;;;;;;;;;;;;;;;20.10;57.54;95831.25;1012362;29;2325;-76
2021/07/09 02:41:14;;;;;;;;;;;;;;;20.13;57.70;95835.97;1016451;29;837;-76
2021/07/09 02:41:44;;;;;;;;;;;;;;;20.11;57.66;95833.59;1015782;29;2642;-75
2021/07/09 02:42:15;;;;;;;;;;;;;;;20.11;57.37;95827.56;1017774;29;817;-76